CheckWX is a tool to help pilots better visualize weather data.  It is not intended as a substitute for an official pre-flight weather briefing.

02:18:15 UTC

KFSD TAF
Joe Foss Field Airport
Sioux Falls, South Dakota, USA
KFSD 192320Z 2000/2024 15011KT P6SM SCT040 BKN250 FM200300 15009KT P6SM VCTS BKN040CB FM200700 16009KT P6SM BKN040 FM201300 VRB04KT P6SM BKN021 FM201700 33006KT P6SM BKN150

Aug-20@
00:00 UTC

Aug-20 @ 00:00 UTC

Aug-20@
03:00 UTC

Aug-20 @ 03:00 UTC

KFSD 192320Z 2000/2024 15011KT P6SM SCT040 BKN250
Wind
  • 150° at 11 KTS
Cloud Levels
  • Scattered at 4,000' AGL
  • Broken at 25,000' AGL

Aug-20@
03:00 UTC

Aug-20 @ 03:00 UTC

Aug-20@
07:00 UTC

Aug-20 @ 07:00 UTC

FM200300 15009KT P6SM VCTS BKN040CB

From

From Standard forecast or significant change

Wind
  • 150° at 9 KTS
Conditions
Area Thunderstorm
Cloud Levels
  • Broken at 4,000' AGL

Aug-20@
07:00 UTC

Aug-20 @ 07:00 UTC

Aug-20@
13:00 UTC

Aug-20 @ 13:00 UTC

FM200700 16009KT P6SM BKN040

From

From Standard forecast or significant change

Wind
  • 160° at 9 KTS
Cloud Levels
  • Broken at 4,000' AGL

Aug-20@
13:00 UTC

Aug-20 @ 13:00 UTC

Aug-20@
17:00 UTC

Aug-20 @ 17:00 UTC

FM201300 VRB04KT P6SM BKN021

From

From Standard forecast or significant change

Wind
  • Variable at 4 KTS
Cloud Levels
  • Broken at 2,100' AGL

Aug-20@
17:00 UTC

Aug-20 @ 17:00 UTC

Aug-21@
00:00 UTC

Aug-21 @ 00:00 UTC

FM201700 33006KT P6SM BKN150

From

From Standard forecast or significant change

Wind
  • 330° at 6 KTS
Cloud Levels
  • Broken at 15,000' AGL